sensor_id;sensor_type;location;lat;lon;timestamp;P1;P2;P0
73148;PMS7003;61346;48.930;2.266;2022-09-24T00:02:19;11.25;10.25;8.25
73148;PMS7003;61346;48.930;2.266;2022-09-24T00:04:44;10.50;10.50;8.00
73148;PMS7003;61346;48.930;2.266;2022-09-24T00:07:10;10.75;9.50;7.75
73148;PMS7003;61346;48.930;2.266;2022-09-24T00:09:35;13.50;13.25;9.50
73148;PMS7003;61346;48.930;2.266;2022-09-24T00:12:01;13.50;11.50;9.00
73148;PMS7003;61346;48.930;2.266;2022-09-24T00:14:26;10.50;10.50;8.50
73148;PMS7003;61346;48.930;2.266;2022-09-24T00:16:52;13.00;11.00;8.25
73148;PMS7003;61346;48.930;2.266;2022-09-24T00:19:17;12.75;12.75;9.00
73148;PMS7003;61346;48.930;2.266;2022-09-24T00:21:43;11.75;11.00;8.50
73148;PMS7003;61346;48.930;2.266;2022-09-24T00:24:09;12.75;11.50;8.75
73148;PMS7003;61346;48.930;2.266;2022-09-24T00:27:00;11.00;11.00;7.00
73148;PMS7003;61346;48.930;2.266;2022-09-24T00:29:27;10.00;10.00;7.50
73148;PMS7003;61346;48.930;2.266;2022-09-24T00:31:53;10.75;10.25;7.50
73148;PMS7003;61346;48.930;2.266;2022-09-24T00:34:18;13.00;11.25;7.75
73148;PMS7003;61346;48.930;2.266;2022-09-24T00:36:45;10.75;9.50;8.00
73148;PMS7003;61346;48.930;2.266;2022-09-24T00:39:11;13.00;12.00;8.25
73148;PMS7003;61346;48.930;2.266;2022-09-24T00:41:37;13.50;11.00;8.25
73148;PMS7003;61346;48.930;2.266;2022-09-24T00:47:12;14.00;10.50;8.00
73148;PMS7003;61346;48.930;2.266;2022-09-24T00:49:43;15.00;13.75;10.75
73148;PMS7003;61346;48.930;2.266;2022-09-24T00:52:11;14.75;11.75;9.75
73148;PMS7003;61346;48.930;2.266;2022-09-24T00:54:38;7.50;6.50;3.50
73148;PMS7003;61346;48.930;2.266;2022-09-24T00:57:06;13.75;13.00;9.75
73148;PMS7003;61346;48.930;2.266;2022-09-24T00:59:32;15.25;13.00;9.00
73148;PMS7003;61346;48.930;2.266;2022-09-24T01:01:59;16.00;15.25;10.50
73148;PMS7003;61346;48.930;2.266;2022-09-24T01:04:26;13.25;10.25;7.25
73148;PMS7003;61346;48.930;2.266;2022-09-24T01:06:52;13.75;12.50;8.25
73148;PMS7003;61346;48.930;2.266;2022-09-24T01:09:18;17.25;14.25;9.50
73148;PMS7003;61346;48.930;2.266;2022-09-24T01:14:51;13.00;12.50;10.00
73148;PMS7003;61346;48.930;2.266;2022-09-24T01:17:45;15.00;13.25;10.00
73148;PMS7003;61346;48.930;2.266;2022-09-24T01:31:52;11.00;11.00;9.00
73148;PMS7003;61346;48.930;2.266;2022-09-24T01:34:26;14.50;14.50;9.75
73148;PMS7003;61346;48.930;2.266;2022-09-24T01:36:57;14.25;13.00;9.50
73148;PMS7003;61346;48.930;2.266;2022-09-24T01:39:24;12.00;11.50;8.50
73148;PMS7003;61346;48.930;2.266;2022-09-24T01:41:51;13.00;13.00;9.75
73148;PMS7003;61346;48.930;2.266;2022-09-24T01:44:17;16.50;15.25;11.50
73148;PMS7003;61346;48.930;2.266;2022-09-24T01:46:43;12.50;12.50;10.00
73148;PMS7003;61346;48.930;2.266;2022-09-24T01:49:09;14.75;12.25;8.00
73148;PMS7003;61346;48.930;2.266;2022-09-24T01:51:40;14.75;11.75;9.00
73148;PMS7003;61346;48.930;2.266;2022-09-24T01:56:48;15.25;13.75;10.00
73148;PMS7003;61346;48.930;2.266;2022-09-24T01:59:19;13.25;11.50;7.75
73148;PMS7003;61346;48.930;2.266;2022-09-24T02:01:52;16.25;12.00;9.00
73148;PMS7003;61346;48.930;2.266;2022-09-24T02:04:25;10.75;10.75;9.00
73148;PMS7003;61346;48.930;2.266;2022-09-24T02:06:54;12.50;11.75;8.50
73148;PMS7003;61346;48.930;2.266;2022-09-24T02:12:20;15.75;13.50;10.50
73148;PMS7003;61346;48.930;2.266;2022-09-24T02:15:14;13.25;12.00;9.00
73148;PMS7003;61346;48.930;2.266;2022-09-24T02:17:45;13.00;13.00;9.00
73148;PMS7003;61346;48.930;2.266;2022-09-24T02:20:15;14.00;12.75;9.00
73148;PMS7003;61346;48.930;2.266;2022-09-24T02:22:45;12.50;11.75;8.00
73148;PMS7003;61346;48.930;2.266;2022-09-24T02:25:14;10.75;10.75;7.00
73148;PMS7003;61346;48.930;2.266;2022-09-24T02:27:44;20.00;11.50;8.75
73148;PMS7003;61346;48.930;2.266;2022-09-24T02:30:11;14.00;12.00;10.00
73148;PMS7003;61346;48.930;2.266;2022-09-24T02:32:38;17.00;14.50;10.25
73148;PMS7003;61346;48.930;2.266;2022-09-24T02:35:08;15.50;13.25;9.25
73148;PMS7003;61346;48.930;2.266;2022-09-24T02:37:38;15.00;15.00;10.00
73148;PMS7003;61346;48.930;2.266;2022-09-24T02:40:06;14.75;14.75;9.50
73148;PMS7003;61346;48.930;2.266;2022-09-24T02:42:33;12.50;12.50;8.50
73148;PMS7003;61346;48.930;2.266;2022-09-24T02:44:59;15.00;13.00;9.50
73148;PMS7003;61346;48.930;2.266;2022-09-24T02:47:26;19.25;16.00;10.75
73148;PMS7003;61346;48.930;2.266;2022-09-24T02:49:53;15.25;15.00;11.00
73148;PMS7003;61346;48.930;2.266;2022-09-24T02:52:20;14.50;11.75;9.00
73148;PMS7003;61346;48.930;2.266;2022-09-24T02:54:46;15.50;15.50;12.25
73148;PMS7003;61346;48.930;2.266;2022-09-24T02:57:12;16.75;14.75;11.75
73148;PMS7003;61346;48.930;2.266;2022-09-24T02:59:38;17.25;15.50;12.00
73148;PMS7003;61346;48.930;2.266;2022-09-24T03:02:03;17.00;15.75;11.75
73148;PMS7003;61346;48.930;2.266;2022-09-24T03:04:30;19.50;16.75;12.25
73148;PMS7003;61346;48.930;2.266;2022-09-24T03:06:56;17.00;16.50;12.00
73148;PMS7003;61346;48.930;2.266;2022-09-24T03:09:21;15.75;14.00;11.25
73148;PMS7003;61346;48.930;2.266;2022-09-24T03:11:47;19.50;16.25;11.00
73148;PMS7003;61346;48.930;2.266;2022-09-24T03:14:12;16.50;13.50;10.50
73148;PMS7003;61346;48.930;2.266;2022-09-24T03:16:38;14.75;13.00;10.00
73148;PMS7003;61346;48.930;2.266;2022-09-24T03:19:04;18.50;17.25;12.50
73148;PMS7003;61346;48.930;2.266;2022-09-24T03:21:31;18.00;16.00;12.00
73148;PMS7003;61346;48.930;2.266;2022-09-24T03:23:56;16.50;15.00;12.00
73148;PMS7003;61346;48.930;2.266;2022-09-24T03:26:22;15.75;15.00;10.75
73148;PMS7003;61346;48.930;2.266;2022-09-24T03:28:47;16.00;16.00;12.25
73148;PMS7003;61346;48.930;2.266;2022-09-24T03:31:14;17.25;14.50;11.00
73148;PMS7003;61346;48.930;2.266;2022-09-24T03:33:40;15.25;14.00;11.00
73148;PMS7003;61346;48.930;2.266;2022-09-24T03:38:52;20.00;16.50;12.00
73148;PMS7003;61346;48.930;2.266;2022-09-24T03:41:20;16.50;14.75;11.75
73148;PMS7003;61346;48.930;2.266;2022-09-24T03:43:46;17.00;16.75;11.75
73148;PMS7003;61346;48.930;2.266;2022-09-24T03:46:12;19.75;15.00;11.50
73148;PMS7003;61346;48.930;2.266;2022-09-24T03:48:38;14.75;14.00;11.75
73148;PMS7003;61346;48.930;2.266;2022-09-24T03:51:05;19.75;16.00;11.75
73148;PMS7003;61346;48.930;2.266;2022-09-24T03:53:34;15.25;15.00;10.25
73148;PMS7003;61346;48.930;2.266;2022-09-24T03:56:01;14.00;14.00;10.25
73148;PMS7003;61346;48.930;2.266;2022-09-24T03:58:28;13.75;13.75;10.00
73148;PMS7003;61346;48.930;2.266;2022-09-24T04:00:55;15.25;15.25;11.25
73148;PMS7003;61346;48.930;2.266;2022-09-24T04:03:22;16.25;14.75;11.25
73148;PMS7003;61346;48.930;2.266;2022-09-24T04:05:48;15.25;13.75;11.00
73148;PMS7003;61346;48.930;2.266;2022-09-24T04:08:17;14.00;14.00;10.00
73148;PMS7003;61346;48.930;2.266;2022-09-24T04:10:44;12.25;11.50;9.50
73148;PMS7003;61346;48.930;2.266;2022-09-24T04:13:12;16.75;14.75;10.50
73148;PMS7003;61346;48.930;2.266;2022-09-24T04:15:38;13.50;12.25;8.25
73148;PMS7003;61346;48.930;2.266;2022-09-24T04:18:03;2.50;0.00;0.00
73148;PMS7003;61346;48.930;2.266;2022-09-24T04:20:29;9.00;8.25;7.00
73148;PMS7003;61346;48.930;2.266;2022-09-24T04:22:57;18.00;15.00;11.00
73148;PMS7003;61346;48.930;2.266;2022-09-24T04:25:23;13.75;13.75;11.00
73148;PMS7003;61346;48.930;2.266;2022-09-24T04:27:56;20.75;16.00;11.75
73148;PMS7003;61346;48.930;2.266;2022-09-24T04:30:26;17.25;15.50;12.00
73148;PMS7003;61346;48.930;2.266;2022-09-24T04:32:53;12.25;11.25;6.00
73148;PMS7003;61346;48.930;2.266;2022-09-24T04:35:19;13.75;12.75;9.00
73148;PMS7003;61346;48.930;2.266;2022-09-24T04:37:47;13.25;12.25;9.50
73148;PMS7003;61346;48.930;2.266;2022-09-24T04:40:13;15.50;14.00;10.00
73148;PMS7003;61346;48.930;2.266;2022-09-24T04:42:40;14.00;14.00;10.25
73148;PMS7003;61346;48.930;2.266;2022-09-24T04:45:07;13.75;12.00;9.00
73148;PMS7003;61346;48.930;2.266;2022-09-24T04:47:34;17.75;14.50;10.75
73148;PMS7003;61346;48.930;2.266;2022-09-24T04:50:00;15.75;13.25;11.00
73148;PMS7003;61346;48.930;2.266;2022-09-24T04:52:27;13.50;12.50;10.00
73148;PMS7003;61346;48.930;2.266;2022-09-24T04:54:54;14.25;11.50;9.50
73148;PMS7003;61346;48.930;2.266;2022-09-24T04:57:20;17.25;12.50;10.00
73148;PMS7003;61346;48.930;2.266;2022-09-24T04:59:47;14.75;14.00;10.00
73148;PMS7003;61346;48.930;2.266;2022-09-24T05:02:12;13.25;12.00;10.00
73148;PMS7003;61346;48.930;2.266;2022-09-24T05:04:38;16.25;14.50;9.50
73148;PMS7003;61346;48.930;2.266;2022-09-24T05:07:03;15.50;14.50;9.25
73148;PMS7003;61346;48.930;2.266;2022-09-24T05:09:29;16.75;14.75;10.75
73148;PMS7003;61346;48.930;2.266;2022-09-24T05:11:58;15.00;14.75;10.00
73148;PMS7003;61346;48.930;2.266;2022-09-24T05:14:24;18.00;16.75;12.00
73148;PMS7003;61346;48.930;2.266;2022-09-24T05:16:50;14.25;14.25;10.00
73148;PMS7003;61346;48.930;2.266;2022-09-24T05:19:15;16.50;16.50;11.00
73148;PMS7003;61346;48.930;2.266;2022-09-24T05:21:40;15.75;14.75;10.00
73148;PMS7003;61346;48.930;2.266;2022-09-24T05:24:07;15.00;13.00;9.00
73148;PMS7003;61346;48.930;2.266;2022-09-24T05:26:32;14.50;14.00;10.75
73148;PMS7003;61346;48.930;2.266;2022-09-24T05:29:19;13.75;13.25;10.50
73148;PMS7003;61346;48.930;2.266;2022-09-24T05:31:45;13.75;11.75;9.00
73148;PMS7003;61346;48.930;2.266;2022-09-24T05:34:10;15.75;12.75;9.25
73148;PMS7003;61346;48.930;2.266;2022-09-24T05:36:36;16.00;15.25;9.00
73148;PMS7003;61346;48.930;2.266;2022-09-24T05:39:02;13.00;11.00;9.00
73148;PMS7003;61346;48.930;2.266;2022-09-24T05:41:29;12.00;11.25;8.75
73148;PMS7003;61346;48.930;2.266;2022-09-24T05:43:55;14.25;13.00;9.75
73148;PMS7003;61346;48.930;2.266;2022-09-24T05:46:20;16.00;14.25;10.00
73148;PMS7003;61346;48.930;2.266;2022-09-24T05:48:46;12.25;12.00;10.00
73148;PMS7003;61346;48.930;2.266;2022-09-24T05:51:12;15.00;12.50;9.25
73148;PMS7003;61346;48.930;2.266;2022-09-24T05:53:37;13.75;13.00;9.00
73148;PMS7003;61346;48.930;2.266;2022-09-24T05:56:03;14.75;13.50;10.25
73148;PMS7003;61346;48.930;2.266;2022-09-24T05:58:28;12.75;12.25;9.00
73148;PMS7003;61346;48.930;2.266;2022-09-24T06:01:02;19.25;15.00;11.00
73148;PMS7003;61346;48.930;2.266;2022-09-24T06:04:32;16.25;13.50;10.75
73148;PMS7003;61346;48.930;2.266;2022-09-24T07:06:03;14.25;14.25;10.00
73148;PMS7003;61346;48.930;2.266;2022-09-24T07:09:10;19.00;15.00;11.00
73148;PMS7003;61346;48.930;2.266;2022-09-24T07:15:21;14.50;14.50;11.50
73148;PMS7003;61346;48.930;2.266;2022-09-24T07:17:58;19.50;16.25;11.75
73148;PMS7003;61346;48.930;2.266;2022-09-24T07:20:40;16.00;15.50;11.50
73148;PMS7003;61346;48.930;2.266;2022-09-24T07:23:21;18.25;16.00;11.25
73148;PMS7003;61346;48.930;2.266;2022-09-24T07:26:07;17.00;15.75;11.25
73148;PMS7003;61346;48.930;2.266;2022-09-24T07:28:38;14.50;13.25;10.75
73148;PMS7003;61346;48.930;2.266;2022-09-24T07:31:03;16.75;16.00;10.75
73148;PMS7003;61346;48.930;2.266;2022-09-24T07:33:32;17.50;16.00;11.75
73148;PMS7003;61346;48.930;2.266;2022-09-24T07:36:09;15.25;14.00;11.00
73148;PMS7003;61346;48.930;2.266;2022-09-24T07:44:55;17.00;15.50;11.00
73148;PMS7003;61346;48.930;2.266;2022-09-24T07:53:29;18.75;18.25;12.50
73148;PMS7003;61346;48.930;2.266;2022-09-24T08:00:01;21.25;16.50;12.50
73148;PMS7003;61346;48.930;2.266;2022-09-24T08:14:32;13.00;12.00;9.25
73148;PMS7003;61346;48.930;2.266;2022-09-24T08:16:57;15.25;15.25;9.50
73148;PMS7003;61346;48.930;2.266;2022-09-24T08:19:23;12.50;12.00;9.75
73148;PMS7003;61346;48.930;2.266;2022-09-24T08:21:48;12.25;10.00;7.50
73148;PMS7003;61346;48.930;2.266;2022-09-24T08:24:14;12.75;10.25;8.75
73148;PMS7003;61346;48.930;2.266;2022-09-24T08:26:40;15.00;14.00;10.00
73148;PMS7003;61346;48.930;2.266;2022-09-24T08:29:06;13.00;11.75;8.75
73148;PMS7003;61346;48.930;2.266;2022-09-24T08:31:31;18.00;14.50;10.00
73148;PMS7003;61346;48.930;2.266;2022-09-24T08:33:58;15.75;13.00;9.00
73148;PMS7003;61346;48.930;2.266;2022-09-24T08:36:25;16.75;16.75;12.75
73148;PMS7003;61346;48.930;2.266;2022-09-24T08:38:52;16.25;14.75;11.25
73148;PMS7003;61346;48.930;2.266;2022-09-24T08:44:11;14.00;12.25;8.75
73148;PMS7003;61346;48.930;2.266;2022-09-24T08:47:04;14.50;12.25;7.75
73148;PMS7003;61346;48.930;2.266;2022-09-24T08:49:49;11.00;11.00;7.75
73148;PMS7003;61346;48.930;2.266;2022-09-24T08:52:28;12.50;11.25;7.50
73148;PMS7003;61346;48.930;2.266;2022-09-24T08:54:54;8.00;8.00;4.75
73148;PMS7003;61346;48.930;2.266;2022-09-24T08:57:37;11.50;10.00;7.00
73148;PMS7003;61346;48.930;2.266;2022-09-24T09:00:12;11.25;9.75;7.25
73148;PMS7003;61346;48.930;2.266;2022-09-24T09:11:58;10.25;10.25;8.00
73148;PMS7003;61346;48.930;2.266;2022-09-24T09:18:42;10.25;9.50;7.00
73148;PMS7003;61346;48.930;2.266;2022-09-24T09:20:53;11.25;11.25;8.25
73148;PMS7003;61346;48.930;2.266;2022-09-24T09:23:29;9.75;9.00;6.50
73148;PMS7003;61346;48.930;2.266;2022-09-24T09:26:01;11.00;11.00;7.25
73148;PMS7003;61346;48.930;2.266;2022-09-24T09:28:27;11.50;10.00;8.50
73148;PMS7003;61346;48.930;2.266;2022-09-24T09:34:02;12.00;9.25;7.25
73148;PMS7003;61346;48.930;2.266;2022-09-24T09:39:30;10.50;10.50;8.25
73148;PMS7003;61346;48.930;2.266;2022-09-24T09:42:14;11.50;10.25;7.75
73148;PMS7003;61346;48.930;2.266;2022-09-24T09:45:43;9.00;7.75;7.50
73148;PMS7003;61346;48.930;2.266;2022-09-24T09:48:09;9.75;9.75;7.75
73148;PMS7003;61346;48.930;2.266;2022-09-24T09:53:18;12.00;12.00;9.00
73148;PMS7003;61346;48.930;2.266;2022-09-24T09:55:50;12.25;11.50;9.00
73148;PMS7003;61346;48.930;2.266;2022-09-24T09:58:43;12.75;12.75;9.25
73148;PMS7003;61346;48.930;2.266;2022-09-24T10:01:17;11.50;10.25;7.25
73148;PMS7003;61346;48.930;2.266;2022-09-24T10:09:05;11.50;10.50;8.50
73148;PMS7003;61346;48.930;2.266;2022-09-24T10:11:31;12.00;11.25;8.25
73148;PMS7003;61346;48.930;2.266;2022-09-24T10:14:08;19.50;15.75;11.00
73148;PMS7003;61346;48.930;2.266;2022-09-24T10:16:37;9.75;6.75;6.00
73148;PMS7003;61346;48.930;2.266;2022-09-24T10:21:47;14.50;12.50;9.50
73148;PMS7003;61346;48.930;2.266;2022-09-24T10:24:15;16.25;13.75;10.00
73148;PMS7003;61346;48.930;2.266;2022-09-24T10:26:44;18.25;15.50;10.25
73148;PMS7003;61346;48.930;2.266;2022-09-24T10:29:18;13.00;12.00;9.25
73148;PMS7003;61346;48.930;2.266;2022-09-24T10:32:19;14.25;14.25;11.00
73148;PMS7003;61346;48.930;2.266;2022-09-24T10:41:31;17.00;15.75;10.25
73148;PMS7003;61346;48.930;2.266;2022-09-24T12:15:15;15.75;14.50;11.75
73148;PMS7003;61346;48.930;2.266;2022-09-24T12:27:37;17.50;15.00;9.75
73148;PMS7003;61346;48.930;2.266;2022-09-24T12:36:41;17.50;14.00;10.50
73148;PMS7003;61346;48.930;2.266;2022-09-24T12:53:00;14.75;13.50;9.75
73148;PMS7003;61346;48.930;2.266;2022-09-24T12:59:21;18.25;16.00;12.00
73148;PMS7003;61346;48.930;2.266;2022-09-24T13:01:48;15.25;15.00;11.25
73148;PMS7003;61346;48.930;2.266;2022-09-24T13:43:13;9.50;9.50;8.50
73148;PMS7003;61346;48.930;2.266;2022-09-24T13:49:17;8.75;8.00;5.25
73148;PMS7003;61346;48.930;2.266;2022-09-24T13:51:54;12.25;10.50;7.75
73148;PMS7003;61346;48.930;2.266;2022-09-24T13:54:37;10.75;6.50;4.75
73148;PMS7003;61346;48.930;2.266;2022-09-24T13:57:23;11.50;11.50;8.50
73148;PMS7003;61346;48.930;2.266;2022-09-24T14:05:51;9.25;9.25;7.00
73148;PMS7003;61346;48.930;2.266;2022-09-24T14:08:50;10.25;9.50;7.00
73148;PMS7003;61346;48.930;2.266;2022-09-24T14:14:57;11.50;11.50;7.75
73148;PMS7003;61346;48.930;2.266;2022-09-24T14:17:37;9.75;9.00;7.25
73148;PMS7003;61346;48.930;2.266;2022-09-24T14:20:26;13.25;11.75;9.00
73148;PMS7003;61346;48.930;2.266;2022-09-24T14:22:56;8.75;8.75;6.75
73148;PMS7003;61346;48.930;2.266;2022-09-24T14:25:29;9.25;9.25;7.50
73148;PMS7003;61346;48.930;2.266;2022-09-24T14:28:01;6.25;6.00;5.00
73148;PMS7003;61346;48.930;2.266;2022-09-24T14:30:29;7.50;7.50;6.00
73148;PMS7003;61346;48.930;2.266;2022-09-24T14:33:29;10.25;9.25;6.00
73148;PMS7003;61346;48.930;2.266;2022-09-24T14:36:08;11.00;11.00;7.75
73148;PMS7003;61346;48.930;2.266;2022-09-24T14:39:58;8.50;8.50;6.25
73148;PMS7003;61346;48.930;2.266;2022-09-24T14:45:15;11.75;8.75;6.75
73148;PMS7003;61346;48.930;2.266;2022-09-24T14:52:20;12.50;11.50;9.00
73148;PMS7003;61346;48.930;2.266;2022-09-24T14:55:15;13.75;10.75;8.50
73148;PMS7003;61346;48.930;2.266;2022-09-24T14:58:20;14.50;12.50;10.00
73148;PMS7003;61346;48.930;2.266;2022-09-24T15:01:01;12.50;11.50;9.00
73148;PMS7003;61346;48.930;2.266;2022-09-24T15:07:33;11.50;10.50;8.50
73148;PMS7003;61346;48.930;2.266;2022-09-24T15:13:56;13.50;12.50;9.50
73148;PMS7003;61346;48.930;2.266;2022-09-24T15:16:32;13.25;11.50;8.25
73148;PMS7003;61346;48.930;2.266;2022-09-24T15:19:19;15.75;10.75;8.00
73148;PMS7003;61346;48.930;2.266;2022-09-24T15:22:19;10.50;10.00;7.75
73148;PMS7003;61346;48.930;2.266;2022-09-24T15:42:41;11.50;11.50;8.75
73148;PMS7003;61346;48.930;2.266;2022-09-24T15:52:20;15.00;13.25;9.50
73148;PMS7003;61346;48.930;2.266;2022-09-24T15:55:45;10.00;10.00;7.25
73148;PMS7003;61346;48.930;2.266;2022-09-24T15:58:40;11.75;10.00;8.00
73148;PMS7003;61346;48.930;2.266;2022-09-24T16:01:43;9.25;8.75;7.25
73148;PMS7003;61346;48.930;2.266;2022-09-24T16:04:12;8.75;8.75;6.25
73148;PMS7003;61346;48.930;2.266;2022-09-24T16:06:53;8.00;8.00;6.00
73148;PMS7003;61346;48.930;2.266;2022-09-24T16:12:28;10.00;8.00;6.00
73148;PMS7003;61346;48.930;2.266;2022-09-24T16:14:57;6.75;6.75;4.75
73148;PMS7003;61346;48.930;2.266;2022-09-24T16:17:25;6.00;6.00;5.00
73148;PMS7003;61346;48.930;2.266;2022-09-24T16:23:09;7.75;4.50;3.00
73148;PMS7003;61346;48.930;2.266;2022-09-24T16:25:58;5.00;5.00;3.50
73148;PMS7003;61346;48.930;2.266;2022-09-24T16:29:04;4.75;4.00;3.00
73148;PMS7003;61346;48.930;2.266;2022-09-24T16:35:52;6.25;5.50;4.25
73148;PMS7003;61346;48.930;2.266;2022-09-24T16:57:14;5.50;3.75;3.00
73148;PMS7003;61346;48.930;2.266;2022-09-24T16:59:39;4.00;4.00;3.50
73148;PMS7003;61346;48.930;2.266;2022-09-24T17:02:06;3.25;3.00;2.00
73148;PMS7003;61346;48.930;2.266;2022-09-24T17:04:35;2.75;2.00;2.00
73148;PMS7003;61346;48.930;2.266;2022-09-24T17:07:00;2.75;2.00;1.50
73148;PMS7003;61346;48.930;2.266;2022-09-24T17:09:26;1.00;1.00;1.00
73148;PMS7003;61346;48.930;2.266;2022-09-24T17:12:09;1.75;1.75;1.25
73148;PMS7003;61346;48.930;2.266;2022-09-24T17:14:35;1.25;1.25;1.00
73148;PMS7003;61346;48.930;2.266;2022-09-24T17:17:01;0.50;0.50;0.00
73148;PMS7003;61346;48.930;2.266;2022-09-24T17:19:26;2.00;1.00;1.00
73148;PMS7003;61346;48.930;2.266;2022-09-24T17:21:52;0.75;0.75;0.00
73148;PMS7003;61346;48.930;2.266;2022-09-24T17:24:18;1.25;1.00;0.50
73148;PMS7003;61346;48.930;2.266;2022-09-24T17:26:44;3.00;1.50;1.00
73148;PMS7003;61346;48.930;2.266;2022-09-24T17:29:10;1.00;1.00;1.00
73148;PMS7003;61346;48.930;2.266;2022-09-24T17:31:35;2.00;2.00;2.00
73148;PMS7003;61346;48.930;2.266;2022-09-24T17:34:02;2.25;2.25;2.00
73148;PMS7003;61346;48.930;2.266;2022-09-24T17:36:30;1.00;1.00;0.25
73148;PMS7003;61346;48.930;2.266;2022-09-24T17:38:56;2.00;2.00;1.75
73148;PMS7003;61346;48.930;2.266;2022-09-24T17:41:23;2.25;2.25;2.00
73148;PMS7003;61346;48.930;2.266;2022-09-24T17:43:49;2.25;2.00;1.50
73148;PMS7003;61346;48.930;2.266;2022-09-24T17:46:16;3.75;2.25;1.25
73148;PMS7003;61346;48.930;2.266;2022-09-24T17:48:46;4.00;2.50;2.00
73148;PMS7003;61346;48.930;2.266;2022-09-24T17:51:15;4.00;3.00;2.00
73148;PMS7003;61346;48.930;2.266;2022-09-24T17:53:46;2.00;2.00;2.00
73148;PMS7003;61346;48.930;2.266;2022-09-24T17:56:14;2.75;2.50;2.00
73148;PMS7003;61346;48.930;2.266;2022-09-24T17:58:41;2.00;2.00;2.00
73148;PMS7003;61346;48.930;2.266;2022-09-24T18:01:09;4.00;3.00;2.00
73148;PMS7003;61346;48.930;2.266;2022-09-24T18:03:36;4.75;3.25;3.00
73148;PMS7003;61346;48.930;2.266;2022-09-24T18:06:03;5.75;5.00;4.00
73148;PMS7003;61346;48.930;2.266;2022-09-24T18:08:36;4.00;4.00;3.00
73148;PMS7003;61346;48.930;2.266;2022-09-24T18:11:12;7.75;5.50;4.25
73148;PMS7003;61346;48.930;2.266;2022-09-24T18:13:39;7.00;5.25;4.00
73148;PMS7003;61346;48.930;2.266;2022-09-24T18:16:06;6.75;6.75;4.00
73148;PMS7003;61346;48.930;2.266;2022-09-24T18:18:34;4.75;4.75;3.00
73148;PMS7003;61346;48.930;2.266;2022-09-24T18:21:03;5.50;5.50;4.50
73148;PMS7003;61346;48.930;2.266;2022-09-24T18:23:31;5.50;5.25;4.75
73148;PMS7003;61346;48.930;2.266;2022-09-24T18:26:08;6.75;5.25;4.00
73148;PMS7003;61346;48.930;2.266;2022-09-24T18:28:39;7.00;5.50;4.00
73148;PMS7003;61346;48.930;2.266;2022-09-24T18:31:26;4.00;4.00;3.00
73148;PMS7003;61346;48.930;2.266;2022-09-24T18:33:54;8.25;7.00;6.00
73148;PMS7003;61346;48.930;2.266;2022-09-24T18:36:22;3.25;2.00;1.50
73148;PMS7003;61346;48.930;2.266;2022-09-24T18:38:49;4.00;4.00;3.25
73148;PMS7003;61346;48.930;2.266;2022-09-24T18:41:19;8.25;7.25;4.50
73148;PMS7003;61346;48.930;2.266;2022-09-24T18:43:47;6.25;6.25;5.25
73148;PMS7003;61346;48.930;2.266;2022-09-24T18:46:13;5.50;5.50;4.00
73148;PMS7003;61346;48.930;2.266;2022-09-24T18:48:41;7.50;7.50;6.50
73148;PMS7003;61346;48.930;2.266;2022-09-24T18:53:49;7.25;7.25;5.75
73148;PMS7003;61346;48.930;2.266;2022-09-24T18:56:16;6.75;6.75;5.25
73148;PMS7003;61346;48.930;2.266;2022-09-24T18:58:41;9.00;8.00;6.50
73148;PMS7003;61346;48.930;2.266;2022-09-24T19:01:06;9.75;8.75;7.50
73148;PMS7003;61346;48.930;2.266;2022-09-24T19:03:33;4.50;2.50;2.50
73148;PMS7003;61346;48.930;2.266;2022-09-24T19:06:01;4.25;3.75;3.75
73148;PMS7003;61346;48.930;2.266;2022-09-24T19:08:28;8.25;7.25;6.00
73148;PMS7003;61346;48.930;2.266;2022-09-24T19:10:59;9.75;8.75;7.00
73148;PMS7003;61346;48.930;2.266;2022-09-24T19:13:26;11.75;7.50;6.50
73148;PMS7003;61346;48.930;2.266;2022-09-24T19:15:52;9.75;8.50;6.75
73148;PMS7003;61346;48.930;2.266;2022-09-24T19:18:17;11.00;9.75;6.75
73148;PMS7003;61346;48.930;2.266;2022-09-24T19:20:44;8.25;7.50;6.25
73148;PMS7003;61346;48.930;2.266;2022-09-24T19:23:11;9.00;7.75;6.00
73148;PMS7003;61346;48.930;2.266;2022-09-24T19:25:38;8.75;7.25;5.75
73148;PMS7003;61346;48.930;2.266;2022-09-24T19:28:04;9.50;9.50;7.25
73148;PMS7003;61346;48.930;2.266;2022-09-24T19:30:40;10.50;9.50;6.75
73148;PMS7003;61346;48.930;2.266;2022-09-24T19:33:08;7.50;7.50;6.00
73148;PMS7003;61346;48.930;2.266;2022-09-24T19:35:37;8.00;7.75;5.75
73148;PMS7003;61346;48.930;2.266;2022-09-24T19:38:03;6.75;6.75;5.50
73148;PMS7003;61346;48.930;2.266;2022-09-24T19:40:28;19.00;19.00;15.00
73148;PMS7003;61346;48.930;2.266;2022-09-24T19:42:53;8.00;7.75;6.50
73148;PMS7003;61346;48.930;2.266;2022-09-24T19:45:20;5.75;2.75;0.50
73148;PMS7003;61346;48.930;2.266;2022-09-24T19:47:45;10.00;8.75;6.50
73148;PMS7003;61346;48.930;2.266;2022-09-24T19:50:11;10.00;9.00;6.50
73148;PMS7003;61346;48.930;2.266;2022-09-24T19:52:37;9.50;9.00;6.50
73148;PMS7003;61346;48.930;2.266;2022-09-24T19:55:02;10.50;9.00;7.25
73148;PMS7003;61346;48.930;2.266;2022-09-24T19:57:30;8.25;8.25;6.50
73148;PMS7003;61346;48.930;2.266;2022-09-24T19:59:58;11.50;10.25;7.50
73148;PMS7003;61346;48.930;2.266;2022-09-24T20:02:25;11.00;9.25;7.50
73148;PMS7003;61346;48.930;2.266;2022-09-24T20:04:50;7.75;7.75;5.75
73148;PMS7003;61346;48.930;2.266;2022-09-24T20:07:15;15.50;10.25;8.25
73148;PMS7003;61346;48.930;2.266;2022-09-24T20:09:42;11.25;10.00;7.50
73148;PMS7003;61346;48.930;2.266;2022-09-24T20:12:07;11.25;8.25;7.00
73148;PMS7003;61346;48.930;2.266;2022-09-24T20:14:43;8.50;8.50;6.75
73148;PMS7003;61346;48.930;2.266;2022-09-24T20:17:09;9.00;8.50;6.75
73148;PMS7003;61346;48.930;2.266;2022-09-24T20:19:34;12.25;11.25;9.00
73148;PMS7003;61346;48.930;2.266;2022-09-24T20:22:00;12.00;11.00;8.50
73148;PMS7003;61346;48.930;2.266;2022-09-24T20:24:26;11.75;11.25;8.50
73148;PMS7003;61346;48.930;2.266;2022-09-24T20:26:54;12.25;10.75;8.50
73148;PMS7003;61346;48.930;2.266;2022-09-24T20:29:58;13.00;9.50;7.00
73148;PMS7003;61346;48.930;2.266;2022-09-24T20:32:24;12.25;11.50;9.00
73148;PMS7003;61346;48.930;2.266;2022-09-24T20:34:49;10.75;10.00;8.00
73148;PMS7003;61346;48.930;2.266;2022-09-24T20:37:15;10.50;10.50;8.00
73148;PMS7003;61346;48.930;2.266;2022-09-24T20:39:41;10.00;9.50;8.00
73148;PMS7003;61346;48.930;2.266;2022-09-24T20:42:08;12.75;12.75;10.50
73148;PMS7003;61346;48.930;2.266;2022-09-24T20:44:34;11.25;9.75;7.50
73148;PMS7003;61346;48.930;2.266;2022-09-24T21:15:55;7.25;7.25;6.50
73148;PMS7003;61346;48.930;2.266;2022-09-24T21:46:02;6.00;6.00;5.00
73148;PMS7003;61346;48.930;2.266;2022-09-24T21:48:51;7.75;7.25;5.50
73148;PMS7003;61346;48.930;2.266;2022-09-24T21:51:25;11.75;10.00;7.75
73148;PMS7003;61346;48.930;2.266;2022-09-24T22:00:55;8.75;8.75;7.00
73148;PMS7003;61346;48.930;2.266;2022-09-24T22:04:03;7.25;6.25;6.00
73148;PMS7003;61346;48.930;2.266;2022-09-24T22:07:40;8.00;7.75;6.00
73148;PMS7003;61346;48.930;2.266;2022-09-24T22:13:26;6.25;6.25;5.25
73148;PMS7003;61346;48.930;2.266;2022-09-24T22:15:52;10.00;8.50;6.75
73148;PMS7003;61346;48.930;2.266;2022-09-24T22:18:20;6.75;6.00;5.50